Filtrer par Nom Sexe Groupe d'age
Vercors pour Elles GranFondo 2016
RG. DOS. TEMPS CAT RG. POINTS
1 213 MARCOUYRE HELENE 02:45:31 AB 1 315.00 TOURNON SUR RHONE, FRANCE
2 259 ZAMBON FANNY 02:49:06 A 1 315.00 CLUSES, FRANCE
3 214 BESSONE MARION 02:49:08 A 2 313.95 LA CIOTAT, France
4 241 MAYOUSSE ANNIELLE 02:52:23 AB 2 313.95 LANS EN VERCORS, France
5 215 MARTIN AMANDINE 02:55:44 A 3 312.90 LACOSTE, France
6 225 MERLE CHRISTEL 02:56:30 AB 3 312.90 CHASPINHAC, FRANCE
7 221 TUPIN MARJOLAINE 02:56:31 A 4 311.85 Saint georges les bains, France
8 256 RIBOT MAITE 02:56:32 AB 4 311.85 , FRANCE
9 260 SCHULLER CELINE 02:56:33 A 5 310.80 FROGES, FRANCE
10 229 EGGER ANNE MARIE 02:56:33 AB 5 310.80 LE PONT DE CLAIX, FRANCE
11 262 VONARX FABIENNE 02:56:33 AB 6 309.75 , FRANCE
12 263 GARNER BETONY 02:56:33 AB 7 308.70 CHAMONIX, France
13 223 DUCHE SOPHIE 02:56:35 AB 8 307.65 CHAMAGNIEU, FRANCE
14 240 JEANNIN MARINE 02:59:27 A 6 309.75 VILLEURBANNE, FRANCE
15 264 FRAISSARD SANDRINE 03:00:36 A 7 308.70 , FRANCE
16 252 KILMARTIN JANE 03:02:10 AB 9 306.60 CHENE BOUGERIES, Suisse
17 249 MCLOUGHLIN SIAN 03:04:49 AB 10 305.55 TESSENS, AIME, FRANCE
18 226 CALDICOTT JEANETTE 03:04:52 AB 11 304.50 BICESTER, Royaume-Uni
19 234 BATCHELOR MELANIE 03:04:54 AB 12 303.45 FEISSONS SUR SALINS, FRANCE
20 217 NAON CORINNE 03:04:56 B 1 315.00 SAINT QUENTIN SUR ISERE, France
21 250 GRISIUS EMMANUELLE 03:05:05 B 2 313.95 VILLERUPT, FRANCE
22 232 DEPARDON AURELIE 03:05:54 A 8 307.65 ARNAS, FRANCE
23 205 GARDEY DELPHINE 03:07:12 AB 13 302.40 CHAMBEIRE, FRANCE
24 245 BESQUEUT LAURIE ANNE 03:14:58 A 9 306.60 LE PONT DE CLAIX, FRANCE
25 227 MOLLE LINA 03:16:28 B 3 312.90 UNIEUX, France
26 231 KAMPF AGNES 03:16:29 AB 14 301.35 COMBLES EN BARROIS, FRANCE
27 228 CELERIER AGATHE 03:17:16 A 10 305.55 GRENOBLE, FRANCE
28 255 BECOUZE SYLVIE 03:17:16 AB 15 300.30 CUSSET, FRANCE
29 233 BESSE SYLVIE 03:17:17 B 4 311.85 CORCELLES LES MONTS, FRANCE
30 17 THUREAU GISELE 03:20:16 B 5 310.80 CHOLET, France
31 261 FRANCAIS LAURE 03:20:18 AB 16 299.25 , FRANCE
32 242 MAGNIER CELINE 03:20:28 AB 17 298.20 LANS EN VERCORS, FRANCE
33 236 DUBUIS LAURA 03:21:40 A 11 304.50 CALUIRE ET CUIRE, FRANCE
34 265 AMBLARD MARIE-NOELLE 03:21:41 B 6 309.75 GENAS, FRANCE
35 220 APPELMAN SUSAN 03:24:51 A 12 303.45 ALLEMONT, FRANCE
36 243 PASTEUR SYLVIE 03:24:52 B 7 308.70 MEAUDRE, FRANCE
37 258 BENSE DELPHINE 03:25:32 AB 18 297.15 , FRANCE
38 257 HARHOUR LAETITIA 03:29:25 A 13 302.40 Grenoble, France, France
39 238 TILLET CHARLOTTE 03:30:03 AB 19 296.10 GRENOBLE, FRANCE
40 230 FOSSE AURELIE 03:31:09 AB 20 295.05 VALENCE, France
41 211 BECAM SYLVIANE 03:34:56 B 8 307.65 CHOLET, France
42 254 RIVOIRARD SOPHIE 03:35:30 AB 21 294.00 LANS EN VERCORS, FRANCE
43 253 CARANHAC SOPHIE 03:35:30 B 9 306.60 , FRANCE
44 209 GELLIE DEVYNCK MELANIE 03:37:03 A 14 301.35 SAINT QUENTIN SUR ISERE, FRANCE
45 222 BEC-CUCHET MARIE-CHRISTINE 03:40:52 B 10 305.55 ECHIROLLES, FRANCE
46 218 CHAILLAN ISABELLE 03:43:59 B 11 304.50 GRENOBLE, FRANCE
47 235 CLAUSTRE CAROLINE 03:47:02 A 15 300.30 LANS EN VERCORS, FRANCE
48 244 MALAN VERONIQUE 03:47:04 AB 22 292.95 VILLARD DE LANS, FRANCE
49 248 SIMONATO FRANCOISE 03:50:31 B 12 303.45 CHAMP SUR DRAC, FRANCE
50 207 CONFORT LARA 03:51:56 AB 23 291.90 LE BOURG D OISANS, FRANCE
51 247 GAILLARD EDITH 03:53:55 B 13 302.40 VILLARD DE LANS, FRANCE
52 216 FAUBEL CORINE 03:54:14 AB 24 290.85 IZEAUX, FRANCE
53 251 LONCKE NINA 04:02:01 B 14 301.35 HOFSTADE, Belgique
54 219 GUERIN GISELE 04:05:43 B 15 300.30 VILLENEUVE, FRANCE
55 202 FARGUES CLAUDINE 04:21:34 B 16 299.25 MURAT SUR VEBRE, FRANCE
56 204 JEANNET MARIECLAIRE 04:27:51 B 17 298.20 AUBERVILLIERS, FRANCE
57 208 JARVIS JENNY 04:30:01 AB 25 289.80 SALLANCHES, FRANCE
58 206 ROOMAN SABINE 04:36:51 AB 26 288.75 , FRANCE

La Vaujany

Après une saison 2020 très particulière et face à cette pandémie qui s'étire en longueur, nous avons dû nous adapter.

Ainsi, c'est avec beaucoup de regrets que nous vous annonçons que La Vaujany ne sera pas organisée en 2021.

Nous travaillons afin que vous puissiez relever le défi de manière alternative.

Nous vous tiendrons informés.
TOP